Millington, MI (48746)

3:04 AM EDT on April 28, 2015 (GMT -0400)
St. John Acres | | Change Station
CLOSE
Current Station
Personal Weather Station
Location: Otisville, MI
Elevation: 796 ft
Nearby Weather Stations

Elev 796 ft 43.12 °N, 83.58 °W | Updated 5 minutes ago

Clear
Clear
30.6 °F
Feels Like 31 °F
N
0.0
Wind Variable Wind from West

Today
High -- | Low -- °F
--% Chance of Precip.
Yesterday
High -- | Low -- °F
Precip. -- in
6:32 AM 8:32 PM
Waxing Gibbous, 71% visible
Pressure 30.11 in
Visibility 10.0 miles
Clouds Clear
Windchill 31 °F
Dew Point 28 °F
Humidity 91%
Rainfall 0.00 in
Snow Depth Not available.
UV 0 out of 12
Pollen 10.40 out of 12
Air Quality Not available.
Flu Activity Regional
METAR KCFS 280635Z AUTO 00000KT 10SM CLR M01/M02 A3011 RMK AO2 T10101016

More Conditions Fewer Conditions

Pressure 30.11 in
Visibility 10.0 miles
Clouds Clear
Windchill 31 °F
Dew Point 28 °F
Humidity 91%
Rainfall 0.00 in
Snow Depth Not available.
UV 0 out of 12
Pollen 10.40 out of 12
Air Quality Not available.
Flu Activity Regional
METAR KCFS 280635Z AUTO 00000KT 10SM CLR M01/M02 A3011 RMK AO2 T10101016

More Conditions Fewer Conditions

10-Day Weather Forecast

Almanac

Astronomy

Apr. 28, 2015 Rise Set
Actual Time
Civil Twilight
Nautical Twilight
Astronomical Twilight
Moon
Length of Visible Light
Length of Day
Tomorrow will be .
, % of the Moon is Illuminated

Today's Extremes

State Highs State Lows

Community

WunderPhotos

Upload Photos

1,817,592 photos uploaded!

WunderBlogs® & News

Nearby

Air Quality

  Air Quality AQ Index Pollutant
Not available.

Snow Depth

Station Depth Elevation

Earthquake Activity

City Distance Mag. Time & Date
Minimum magnitude displayed is 2.5.

Coastal Water Temperatures

Place Temperature

Stations

Nearby Weather Stations

Station Location Temp. Windchill Dew Point Humidity Wind Precip. Elev Updated Type